Time;durP1;ratioP1;P1;durP2;ratioP2;P2;SDS_P1;SDS_P2;PMS_P1;PMS_P2;Temp;Humidity;BMP_temperature;BMP_pressure;BME280_temperature;BME280_humidity;BME280_pressure;Samples;Min_cycle;Max_cycle;Signal;HPM_P1;HPM_P2
2023/07/18 00:00:41;;;;;;;6.25;1.60;;;16.30;99.90;;;;;;4988705;28;20117;-53
2023/07/18 00:03:08;;;;;;;7.55;1.60;;;16.30;99.90;;;;;;4982049;28;20481;-56
2023/07/18 00:05:36;;;;;;;10.00;2.22;;;16.40;99.90;;;;;;4988808;28;20050;-51
2023/07/18 00:08:03;;;;;;;5.90;1.55;;;16.40;99.90;;;;;;4977276;28;20046;-56
2023/07/18 00:10:30;;;;;;;5.15;1.50;;;16.30;99.90;;;;;;4986498;28;20113;-50
2023/07/18 00:12:57;;;;;;;5.55;1.67;;;16.40;99.90;;;;;;4982357;28;20043;-51
2023/07/18 00:15:28;;;;;;;8.95;2.47;;;16.40;99.90;;;;;;4984305;28;20081;-56
2023/07/18 00:17:55;;;;;;;6.30;1.85;;;16.50;99.90;;;;;;4981851;28;20094;-55
2023/07/18 00:20:23;;;;;;;14.05;2.17;;;16.40;99.90;;;;;;4988973;28;20105;-53
2023/07/18 00:22:50;;;;;;;5.07;1.50;;;16.50;99.90;;;;;;4986224;28;20557;-53
2023/07/18 00:25:19;;;;;;;4.72;1.42;;;16.40;99.90;;;;;;4984296;28;20051;-53
2023/07/18 00:27:47;;;;;;;4.80;1.27;;;16.40;99.90;;;;;;4987499;28;20069;-51
2023/07/18 00:30:14;;;;;;;5.20;1.23;;;16.40;99.90;;;;;;4988352;28;20488;-54
2023/07/18 00:32:50;;;;;;;10.63;1.98;;;16.40;99.90;;;;;;4987742;28;20110;-56
2023/07/18 00:35:17;;;;;;;4.18;1.50;;;16.40;99.90;;;;;;4980543;28;20410;-56
2023/07/18 00:37:44;;;;;;;4.93;1.25;;;16.40;99.90;;;;;;4974216;28;20050;-52
2023/07/18 00:40:12;;;;;;;6.28;1.90;;;16.30;99.90;;;;;;4988676;28;20057;-52
2023/07/18 00:42:39;;;;;;;6.78;1.73;;;16.30;99.90;;;;;;4987144;28;20113;-56
2023/07/18 00:45:06;;;;;;;7.57;1.70;;;16.30;99.90;;;;;;4989031;28;20496;-54
2023/07/18 00:47:43;;;;;;;5.28;1.75;;;16.30;99.90;;;;;;4991297;28;20054;-54
2023/07/18 00:50:11;;;;;;;5.68;1.20;;;16.30;99.90;;;;;;4987779;28;20122;-56
2023/07/18 00:52:41;;;;;;;7.43;1.40;;;16.30;99.90;;;;;;4978329;28;20120;-55
2023/07/18 00:55:08;;;;;;;12.00;1.83;;;16.20;99.90;;;;;;4990249;28;20093;-57
2023/07/18 00:57:37;;;;;;;7.28;1.80;;;16.20;99.90;;;;;;4991848;28;20210;-58
2023/07/18 01:00:11;;;;;;;8.48;1.30;;;16.00;99.90;;;;;;4991384;28;20050;-56
2023/07/18 01:02:39;;;;;;;6.00;1.40;;;16.00;99.90;;;;;;4992099;28;20039;-56
2023/07/18 01:05:07;;;;;;;7.88;1.50;;;16.00;99.90;;;;;;4992054;28;20054;-52
2023/07/18 01:07:35;;;;;;;4.85;1.40;;;15.90;99.90;;;;;;4974722;28;20446;-56
2023/07/18 01:10:24;;;;;;;4.43;1.25;;;15.90;99.90;;;;;;4983332;28;20117;-54
2023/07/18 01:12:58;;;;;;;11.31;3.21;;;15.90;99.90;;;;;;4646568;28;10001213;-54
2023/07/18 01:15:27;;;;;;;4.82;1.80;;;15.80;99.90;;;;;;4977529;28;20406;-56
2023/07/18 01:17:54;;;;;;;4.38;1.30;;;15.90;99.90;;;;;;4989683;28;20050;-51
2023/07/18 01:20:27;;;;;;;6.18;1.42;;;15.80;99.90;;;;;;4988780;28;20063;-58
2023/07/18 01:22:55;;;;;;;5.90;1.70;;;15.80;99.90;;;;;;4990779;28;20074;-56
2023/07/18 01:25:22;;;;;;;6.13;1.30;;;15.80;99.90;;;;;;4990107;28;20138;-53
2023/07/18 01:27:50;;;;;;;3.90;1.50;;;15.80;99.90;;;;;;4992004;28;20371;-53
2023/07/18 01:30:20;;;;;;;3.70;1.30;;;15.70;99.90;;;;;;4991450;28;20042;-56
2023/07/18 01:32:48;;;;;;;7.32;1.30;;;15.80;99.90;;;;;;4991804;28;20299;-53
2023/07/18 01:35:17;;;;;;;4.63;1.35;;;15.80;99.90;;;;;;4991376;28;20124;-57
2023/07/18 01:37:46;;;;;;;5.07;1.98;;;15.80;99.90;;;;;;4990590;28;20054;-55
2023/07/18 01:40:21;;;;;;;4.63;1.60;;;15.80;99.90;;;;;;4982981;28;20059;-60
2023/07/18 01:42:51;;;;;;;5.38;1.17;;;15.80;99.90;;;;;;4991505;28;20050;-51
2023/07/18 01:45:19;;;;;;;8.20;1.52;;;15.80;99.90;;;;;;4990676;28;20177;-55
2023/07/18 01:47:46;;;;;;;4.72;1.60;;;15.80;99.90;;;;;;4980672;28;20137;-52
2023/07/18 01:50:13;;;;;;;5.80;1.30;;;15.80;99.90;;;;;;4991072;28;20061;-55
2023/07/18 01:52:40;;;;;;;7.15;1.30;;;15.80;99.90;;;;;;4984741;28;20469;-55
2023/07/18 01:55:07;;;;;;;5.03;1.58;;;15.70;99.90;;;;;;4975943;28;20163;-55
2023/07/18 01:57:40;;;;;;;5.05;1.45;;;15.70;99.90;;;;;;4985710;28;20404;-55
2023/07/18 02:00:11;;;;;;;5.03;1.67;;;15.70;99.90;;;;;;4991047;28;20405;-55
2023/07/18 02:02:41;;;;;;;8.68;2.10;;;15.70;99.90;;;;;;4989294;28;20061;-56
2023/07/18 02:05:08;;;;;;;9.95;1.58;;;15.70;99.90;;;;;;4989326;28;20050;-57
2023/07/18 02:07:35;;;;;;;6.40;1.08;;;15.60;99.90;;;;;;4987321;28;20054;-55
2023/07/18 02:10:02;;;;;;;6.00;1.52;;;15.50;99.90;;;;;;4988676;28;20055;-55
2023/07/18 02:12:29;;;;;;;5.70;1.27;;;15.40;99.90;;;;;;4989300;28;20419;-56
2023/07/18 02:14:56;;;;;;;4.97;1.15;;;15.30;99.90;;;;;;4989584;28;20386;-56
2023/07/18 02:17:23;;;;;;;3.38;1.25;;;15.30;99.90;;;;;;4991127;28;20042;-54
2023/07/18 02:19:49;;;;;;;7.20;1.10;;;15.20;99.90;;;;;;4991005;28;20058;-56
2023/07/18 02:22:18;;;;;;;5.47;1.15;;;15.20;99.90;;;;;;4989946;28;20050;-55
2023/07/18 02:24:48;;;;;;;2.63;0.98;;;15.10;99.90;;;;;;4991528;28;20096;-52
2023/07/18 02:27:15;;;;;;;7.22;1.58;;;15.10;99.90;;;;;;4989987;28;20563;-55
2023/07/18 02:29:41;;;;;;;3.25;1.10;;;15.10;99.90;;;;;;4990850;28;20564;-56
2023/07/18 02:32:08;;;;;;;9.05;1.63;;;15.00;99.90;;;;;;4990397;28;20101;-56
2023/07/18 02:34:35;;;;;;;5.88;1.23;;;15.00;99.90;;;;;;4979664;28;20073;-53
2023/07/18 02:37:02;;;;;;;7.10;1.33;;;15.00;99.90;;;;;;4979086;28;20129;-54
2023/07/18 02:39:32;;;;;;;6.38;1.00;;;15.00;99.90;;;;;;4979660;28;20056;-56
2023/07/18 02:41:59;;;;;;;5.10;1.30;;;15.00;99.90;;;;;;4988710;28;20489;-56
2023/07/18 02:44:26;;;;;;;5.80;1.27;;;14.90;99.90;;;;;;4979822;28;20070;-53
2023/07/18 02:46:53;;;;;;;6.70;1.17;;;14.90;99.90;;;;;;4990427;28;20117;-56
2023/07/18 02:49:20;;;;;;;6.57;1.42;;;14.90;99.90;;;;;;4985445;28;20395;-56
2023/07/18 02:51:46;;;;;;;9.30;1.48;;;14.90;99.90;;;;;;4977271;28;20493;-56
2023/07/18 02:54:13;;;;;;;2.58;1.00;;;14.90;99.90;;;;;;4979472;28;20046;-55
2023/07/18 02:56:40;;;;;;;5.75;1.52;;;14.90;99.90;;;;;;4989753;28;20644;-55
2023/07/18 02:59:07;;;;;;;2.53;1.02;;;14.90;99.90;;;;;;4987139;28;20528;-55
2023/07/18 03:01:34;;;;;;;4.00;1.08;;;14.90;99.90;;;;;;4989557;28;20042;-55
2023/07/18 03:04:01;;;;;;;7.60;1.35;;;14.80;99.90;;;;;;4989811;28;20042;-54
2023/07/18 03:06:28;;;;;;;7.63;1.50;;;14.70;99.90;;;;;;4971991;28;20484;-56
2023/07/18 03:08:55;;;;;;;5.45;1.27;;;14.70;99.90;;;;;;4987742;28;20078;-59
2023/07/18 03:11:22;;;;;;;3.38;1.23;;;14.70;99.90;;;;;;4989783;28;20054;-54
2023/07/18 03:13:49;;;;;;;2.78;1.02;;;14.70;99.90;;;;;;4986979;28;20046;-55
2023/07/18 03:16:16;;;;;;;4.50;1.27;;;14.60;99.90;;;;;;4989972;28;20069;-55
2023/07/18 03:18:43;;;;;;;4.20;1.50;;;14.50;99.90;;;;;;4988980;28;20133;-55
2023/07/18 03:21:10;;;;;;;3.40;1.33;;;14.50;99.90;;;;;;4989678;28;20398;-55
2023/07/18 03:23:36;;;;;;;6.80;1.35;;;14.60;99.90;;;;;;4986951;28;20043;-54
2023/07/18 03:26:03;;;;;;;9.48;1.85;;;14.60;99.90;;;;;;5004408;28;20045;-53
2023/07/18 03:28:30;;;;;;;3.38;1.25;;;14.60;99.90;;;;;;4984364;28;20065;-52
2023/07/18 03:30:57;;;;;;;4.15;1.48;;;14.50;99.90;;;;;;4981029;28;20038;-55
2023/07/18 03:33:24;;;;;;;3.15;1.20;;;14.50;99.90;;;;;;4988891;28;20113;-55
2023/07/18 03:35:51;;;;;;;5.13;1.50;;;14.50;99.90;;;;;;4989113;28;20042;-52
2023/07/18 03:38:17;;;;;;;5.50;1.50;;;14.40;99.90;;;;;;4985941;28;20051;-55
2023/07/18 03:40:47;;;;;;;5.65;0.90;;;14.40;99.90;;;;;;4977088;28;20050;-56
2023/07/18 03:43:13;;;;;;;4.53;1.40;;;14.30;99.90;;;;;;4988959;28;20052;-55
2023/07/18 03:45:40;;;;;;;3.47;0.98;;;14.30;99.90;;;;;;4981849;28;20065;-56
2023/07/18 03:48:07;;;;;;;8.95;1.70;;;14.20;99.90;;;;;;4972334;28;20502;-56
2023/07/18 03:50:34;;;;;;;4.32;1.10;;;14.20;99.90;;;;;;4987108;28;20094;-55
2023/07/18 03:53:01;;;;;;;6.32;1.73;;;14.10;99.90;;;;;;4988816;28;20095;-56
2023/07/18 03:55:28;;;;;;;6.40;1.55;;;14.10;99.90;;;;;;4987242;28;20050;-54
2023/07/18 03:57:55;;;;;;;3.80;1.35;;;14.10;99.90;;;;;;4988813;28;20058;-55
2023/07/18 04:00:22;;;;;;;4.45;0.90;;;14.10;99.90;;;;;;4981831;28;20038;-54
2023/07/18 04:02:49;;;;;;;7.78;1.88;;;14.10;99.90;;;;;;4975708;28;20051;-55
2023/07/18 04:05:17;;;;;;;8.02;2.17;;;14.10;99.90;;;;;;4983449;28;20108;-54
2023/07/18 04:07:45;;;;;;;7.72;1.83;;;14.00;99.90;;;;;;4988727;28;20504;-57
2023/07/18 04:10:12;;;;;;;7.07;1.25;;;14.00;99.90;;;;;;4984085;28;20540;-54
2023/07/18 04:12:40;;;;;;;3.00;1.00;;;14.00;99.90;;;;;;4989053;28;20057;-56
2023/07/18 04:15:10;;;;;;;1.83;1.00;;;13.90;99.90;;;;;;4986420;28;20050;-50
2023/07/18 04:17:38;;;;;;;6.57;1.25;;;13.90;99.90;;;;;;4988085;28;20050;-55
2023/07/18 04:20:06;;;;;;;4.60;0.93;;;13.90;99.90;;;;;;5002055;28;20062;-55
2023/07/18 04:22:32;;;;;;;6.78;1.58;;;13.90;99.90;;;;;;4983085;28;20454;-55
2023/07/18 04:24:59;;;;;;;7.95;1.92;;;13.90;99.90;;;;;;4973894;28;20054;-54
2023/07/18 04:27:27;;;;;;;2.95;0.80;;;13.90;99.90;;;;;;4986851;28;20050;-51
2023/07/18 04:29:55;;;;;;;4.10;1.15;;;13.90;99.90;;;;;;4988606;28;20108;-56
2023/07/18 04:32:21;;;;;;;9.48;1.33;;;13.80;99.90;;;;;;4975957;28;20051;-54
2023/07/18 04:34:48;;;;;;;6.97;1.40;;;13.70;99.90;;;;;;4989117;28;20133;-51
2023/07/18 04:37:15;;;;;;;4.72;1.00;;;13.70;99.90;;;;;;4987471;28;20053;-52
2023/07/18 04:39:42;;;;;;;3.15;1.38;;;13.70;99.90;;;;;;4987194;28;20445;-55
2023/07/18 04:42:10;;;;;;;3.80;1.15;;;13.70;99.90;;;;;;4980527;28;20493;-55
2023/07/18 04:44:37;;;;;;;5.07;1.10;;;13.70;99.90;;;;;;4988921;28;20086;-52
2023/07/18 04:47:05;;;;;;;5.93;1.40;;;13.70;99.90;;;;;;4988052;28;20133;-55
2023/07/18 04:49:32;;;;;;;4.95;1.85;;;13.60;99.90;;;;;;4988500;28;20061;-51
2023/07/18 04:51:58;;;;;;;2.80;0.95;;;13.70;99.90;;;;;;4981136;28;20056;-54
2023/07/18 04:54:25;;;;;;;6.82;1.55;;;13.70;99.90;;;;;;4976247;28;20070;-54
2023/07/18 04:56:53;;;;;;;6.53;1.50;;;13.70;99.90;;;;;;4979281;28;20081;-54
2023/07/18 04:59:21;;;;;;;4.72;1.50;;;13.80;99.90;;;;;;4992643;28;20046;-52
2023/07/18 05:01:54;;;;;;;6.80;1.33;;;13.70;99.90;;;;;;4983139;28;20050;-51
2023/07/18 05:04:21;;;;;;;7.60;1.60;;;13.70;99.90;;;;;;4978530;28;20125;-55
2023/07/18 05:06:51;;;;;;;10.48;1.73;;;13.80;99.90;;;;;;4984494;28;20097;-55
2023/07/18 05:09:18;;;;;;;6.97;1.48;;;13.80;99.90;;;;;;4988264;28;20467;-53
2023/07/18 05:11:45;;;;;;;17.35;2.03;;;13.90;99.90;;;;;;4986507;28;20097;-52
2023/07/18 05:14:12;;;;;;;8.27;2.28;;;13.90;99.90;;;;;;4984903;28;20062;-50
2023/07/18 05:16:39;;;;;;;9.77;1.98;;;14.10;99.90;;;;;;4987183;28;20042;-52
2023/07/18 05:19:06;;;;;;;3.67;1.00;;;14.20;99.90;;;;;;4986946;28;20050;-54
2023/07/18 05:21:33;;;;;;;4.25;1.33;;;14.20;99.90;;;;;;4984514;28;20353;-52
2023/07/18 05:24:00;;;;;;;6.93;1.90;;;14.20;99.90;;;;;;4988370;28;20068;-56
2023/07/18 05:26:26;;;;;;;6.63;1.80;;;14.30;99.90;;;;;;4988250;28;20054;-52
2023/07/18 05:28:53;;;;;;;15.30;2.10;;;14.40;99.90;;;;;;4981825;28;20050;-52
2023/07/18 05:31:20;;;;;;;6.90;1.88;;;14.40;99.90;;;;;;4977393;28;20081;-55
2023/07/18 05:33:48;;;;;;;4.45;1.15;;;14.50;99.90;;;;;;4988195;28;20112;-55
2023/07/18 05:36:16;;;;;;;6.22;1.20;;;14.50;99.90;;;;;;4991838;28;20129;-54
2023/07/18 05:38:43;;;;;;;8.77;1.70;;;14.60;99.90;;;;;;4991432;28;20047;-54
2023/07/18 05:41:10;;;;;;;8.20;1.48;;;14.70;99.90;;;;;;4992031;28;20046;-53
2023/07/18 05:43:37;;;;;;;10.15;1.20;;;14.70;99.90;;;;;;4990013;28;20420;-54
2023/07/18 05:46:04;;;;;;;9.00;1.52;;;14.80;99.90;;;;;;4991680;28;20505;-54
2023/07/18 05:48:31;;;;;;;6.78;1.77;;;14.80;99.90;;;;;;4988769;28;20153;-55
2023/07/18 05:51:00;;;;;;;10.32;2.08;;;14.90;99.90;;;;;;4981925;28;20112;-55
2023/07/18 05:53:26;;;;;;;7.72;1.45;;;14.90;99.90;;;;;;4989414;28;20065;-54
2023/07/18 05:55:53;;;;;;;3.03;1.10;;;15.00;99.90;;;;;;4980678;28;20290;-58
2023/07/18 05:58:20;;;;;;;6.82;1.33;;;15.10;99.90;;;;;;4991415;28;20053;-56
2023/07/18 06:00:47;;;;;;;12.85;1.55;;;15.10;99.90;;;;;;4991296;28;20053;-57
2023/07/18 06:03:14;;;;;;;7.57;1.55;;;15.20;99.90;;;;;;4991007;28;20138;-56
2023/07/18 06:05:41;;;;;;;10.45;1.70;;;15.30;99.90;;;;;;4985826;28;20042;-56
2023/07/18 06:08:09;;;;;;;9.10;3.33;;;15.40;99.90;;;;;;4973269;28;20098;-55
2023/07/18 06:10:36;;;;;;;8.80;1.60;;;15.50;99.90;;;;;;4986152;28;20520;-55
2023/07/18 06:13:03;;;;;;;5.53;1.23;;;15.50;99.90;;;;;;4991370;28;20042;-54
2023/07/18 06:15:30;;;;;;;4.88;1.40;;;15.60;99.90;;;;;;4990495;28;20054;-56
2023/07/18 06:17:57;;;;;;;9.48;1.58;;;15.70;99.90;;;;;;4973128;28;20078;-56
2023/07/18 06:20:24;;;;;;;6.63;1.67;;;15.70;99.90;;;;;;4989268;28;20100;-54
2023/07/18 06:22:52;;;;;;;5.60;1.42;;;15.80;99.90;;;;;;4990671;28;20061;-55
2023/07/18 06:25:19;;;;;;;7.43;1.83;;;15.90;99.90;;;;;;4985990;28;20417;-55
2023/07/18 06:27:46;;;;;;;8.23;1.45;;;16.00;99.90;;;;;;4989811;28;20053;-56
2023/07/18 06:30:13;;;;;;;7.50;1.90;;;16.10;99.90;;;;;;4989338;28;20050;-55
2023/07/18 06:32:39;;;;;;;6.32;1.52;;;16.10;99.90;;;;;;4977931;28;20497;-55
2023/07/18 06:35:07;;;;;;;5.22;1.27;;;16.20;99.90;;;;;;4979595;28;20061;-55
2023/07/18 06:37:49;;;;;;;12.38;2.05;;;16.30;99.90;;;;;;4984797;28;20050;-55
2023/07/18 06:40:16;;;;;;;8.77;1.85;;;16.30;99.90;;;;;;4985607;28;20046;-55
2023/07/18 06:42:43;;;;;;;15.63;2.45;;;16.40;99.90;;;;;;4978968;28;20082;-53
2023/07/18 06:45:11;;;;;;;10.70;1.80;;;16.40;99.90;;;;;;4984986;28;20047;-57
2023/07/18 06:47:38;;;;;;;7.55;1.40;;;16.50;99.90;;;;;;4990474;28;20073;-56
2023/07/18 06:50:05;;;;;;;12.38;2.15;;;16.60;99.90;;;;;;4988085;28;20042;-58
2023/07/18 06:52:32;;;;;;;4.88;1.50;;;16.70;99.90;;;;;;4981798;28;20105;-56
2023/07/18 06:55:03;;;;;;;11.60;1.60;;;16.70;99.90;;;;;;4981252;28;20078;-56
2023/07/18 06:57:30;;;;;;;10.38;1.77;;;16.70;99.90;;;;;;4984961;28;20329;-55
2023/07/18 06:59:57;;;;;;;9.93;1.70;;;16.80;99.90;;;;;;4972622;28;20569;-55
2023/07/18 07:02:24;;;;;;;6.63;2.03;;;16.80;99.90;;;;;;4978815;28;20132;-55
2023/07/18 07:04:52;;;;;;;12.68;1.60;;;16.90;99.90;;;;;;4989697;28;20085;-54
2023/07/18 07:07:18;;;;;;;9.75;2.72;;;17.00;99.90;;;;;;4982913;28;20046;-56
2023/07/18 07:09:45;;;;;;;6.70;1.20;;;17.10;99.90;;;;;;4987591;28;20062;-57
2023/07/18 07:12:14;;;;;;;3.90;1.25;;;17.20;99.90;;;;;;4980698;28;20498;-57
2023/07/18 07:14:56;;;;;;;2.17;1.08;;;17.30;99.90;;;;;;4986076;28;20042;-57
2023/07/18 07:17:23;;;;;;;13.20;1.75;;;17.40;99.90;;;;;;4985017;28;20050;-55
2023/07/18 07:19:50;;;;;;;6.35;1.13;;;17.40;99.90;;;;;;4988616;28;20061;-56
2023/07/18 07:22:17;;;;;;;11.25;1.77;;;17.50;99.90;;;;;;4988582;28;20138;-56
2023/07/18 07:24:46;;;;;;;9.70;1.40;;;17.60;99.90;;;;;;4988120;28;20512;-57
2023/07/18 07:27:13;;;;;;;7.95;1.13;;;17.60;99.90;;;;;;4988115;28;20470;-55
2023/07/18 07:29:40;;;;;;;5.47;1.40;;;17.70;99.90;;;;;;4989197;28;20054;-57
2023/07/18 07:32:07;;;;;;;5.22;1.15;;;17.70;99.90;;;;;;4983927;28;20161;-55
2023/07/18 07:34:34;;;;;;;7.85;0.95;;;17.70;99.90;;;;;;4989293;28;20497;-55
2023/07/18 07:37:04;;;;;;;2.78;0.98;;;17.80;99.90;;;;;;4988580;28;20077;-55
2023/07/18 07:39:30;;;;;;;9.45;1.42;;;18.00;99.90;;;;;;4988986;28;20054;-53
2023/07/18 07:41:57;;;;;;;5.20;0.98;;;18.10;99.90;;;;;;4986398;28;20098;-58
2023/07/18 07:44:24;;;;;;;5.05;1.00;;;18.10;99.90;;;;;;4982983;28;20054;-57
2023/07/18 07:46:51;;;;;;;5.53;0.93;;;18.30;99.90;;;;;;4988764;28;20050;-57
2023/07/18 07:49:18;;;;;;;10.80;2.20;;;18.30;99.90;;;;;;4983605;28;20092;-57
2023/07/18 07:51:45;;;;;;;2.67;1.00;;;18.40;99.90;;;;;;4972617;28;20043;-57
2023/07/18 07:54:14;;;;;;;3.60;1.13;;;18.40;99.90;;;;;;4984935;28;20050;-58
2023/07/18 07:56:41;;;;;;;12.43;1.98;;;18.50;99.90;;;;;;4983547;28;20113;-55
2023/07/18 07:59:07;;;;;;;7.25;1.42;;;18.60;99.90;;;;;;4988800;28;20551;-54
2023/07/18 08:01:38;;;;;;;5.70;1.02;;;18.70;99.90;;;;;;4987634;28;20072;-56
2023/07/18 08:04:05;;;;;;;5.45;1.13;;;18.80;99.90;;;;;;4977342;28;20062;-57
2023/07/18 08:06:32;;;;;;;3.75;1.00;;;18.80;99.90;;;;;;4988610;28;20046;-60
2023/07/18 08:08:59;;;;;;;1.83;0.70;;;18.90;99.90;;;;;;4984473;28;20429;-55
2023/07/18 08:11:26;;;;;;;8.38;1.20;;;19.00;99.90;;;;;;4986767;28;20050;-56
2023/07/18 08:13:53;;;;;;;3.45;1.02;;;19.00;99.90;;;;;;4986960;28;20046;-57
2023/07/18 08:16:20;;;;;;;6.07;1.08;;;19.10;99.90;;;;;;4988408;28;20078;-58
2023/07/18 08:18:47;;;;;;;3.88;1.00;;;19.20;99.90;;;;;;4988102;28;20050;-56
2023/07/18 08:21:14;;;;;;;5.82;1.20;;;19.30;99.90;;;;;;4987495;28;20054;-53
2023/07/18 08:23:41;;;;;;;4.93;2.10;;;19.30;99.90;;;;;;4986735;28;20047;-56
2023/07/18 08:26:08;;;;;;;6.85;1.55;;;19.40;99.90;;;;;;4988559;28;20578;-58
2023/07/18 08:28:35;;;;;;;4.95;0.88;;;19.40;99.90;;;;;;5002070;28;20050;-56
2023/07/18 08:31:05;;;;;;;6.63;1.48;;;19.50;99.90;;;;;;4987560;28;20101;-57
2023/07/18 08:33:32;;;;;;;8.38;1.15;;;19.50;99.90;;;;;;4986912;28;20043;-58
2023/07/18 08:35:59;;;;;;;8.63;1.10;;;19.60;99.90;;;;;;4978432;28;20042;-54
2023/07/18 08:38:26;;;;;;;4.43;1.77;;;19.70;99.90;;;;;;4987148;28;20053;-56
2023/07/18 08:40:53;;;;;;;6.40;1.20;;;19.70;99.90;;;;;;4977445;28;20494;-57
2023/07/18 08:43:20;;;;;;;6.90;1.00;;;19.90;99.90;;;;;;4988443;28;20545;-56
2023/07/18 08:45:47;;;;;;;7.22;1.35;;;19.80;99.90;;;;;;4986255;28;20149;-55
2023/07/18 08:48:14;;;;;;;5.80;1.20;;;19.70;99.90;;;;;;4969458;28;20057;-57
2023/07/18 08:50:41;;;;;;;7.00;1.30;;;19.90;99.90;;;;;;4977248;28;20062;-58
2023/07/18 08:53:08;;;;;;;5.15;0.90;;;19.90;99.90;;;;;;4985693;28;20517;-56
2023/07/18 08:55:36;;;;;;;5.05;1.20;;;20.00;99.90;;;;;;4979569;28;20133;-56
2023/07/18 08:58:03;;;;;;;1.92;0.82;;;20.00;99.90;;;;;;5002494;28;20046;-55
2023/07/18 09:00:30;;;;;;;5.72;1.20;;;20.10;99.90;;;;;;4984907;28;20547;-58
2023/07/18 09:02:57;;;;;;;4.22;0.93;;;20.20;99.90;;;;;;4988379;28;20058;-55
2023/07/18 09:05:32;;;;;;;3.20;1.10;;;20.20;99.90;;;;;;4985787;28;20133;-57
2023/07/18 09:07:59;;;;;;;7.72;1.02;;;20.20;99.90;;;;;;4985809;28;20050;-58
2023/07/18 09:10:26;;;;;;;5.18;0.98;;;20.10;99.90;;;;;;4991960;28;20054;-59
2023/07/18 09:12:54;;;;;;;5.72;1.02;;;20.10;99.90;;;;;;4983225;28;20159;-57
2023/07/18 09:15:21;;;;;;;6.72;0.82;;;20.20;99.90;;;;;;4982574;28;20043;-56
2023/07/18 09:18:00;;;;;;;5.32;1.25;;;20.20;99.90;;;;;;4982707;28;20051;-58
2023/07/18 09:20:28;;;;;;;11.98;1.10;;;20.40;99.90;;;;;;4982856;28;20073;-56
2023/07/18 09:22:56;;;;;;;5.70;1.33;;;20.40;99.90;;;;;;4983618;28;20170;-57
2023/07/18 09:25:25;;;;;;;1.85;0.75;;;20.40;99.90;;;;;;4990946;28;20058;-57
2023/07/18 09:27:53;;;;;;;3.25;0.82;;;20.40;99.90;;;;;;4989760;28;20054;-61
2023/07/18 09:30:32;;;;;;;6.32;1.13;;;20.50;99.90;;;;;;4987799;28;20051;-57
2023/07/18 09:33:02;;;;;;;12.30;2.20;;;20.50;99.90;;;;;;4988068;28;20042;-59
2023/07/18 09:35:29;;;;;;;6.50;1.33;;;20.60;99.90;;;;;;4987269;28;20046;-56
2023/07/18 09:37:56;;;;;;;5.03;1.00;;;20.70;99.90;;;;;;4983704;28;20119;-57
2023/07/18 09:40:23;;;;;;;7.47;1.05;;;20.80;99.90;;;;;;4986363;28;20051;-57
2023/07/18 09:42:49;;;;;;;7.72;1.10;;;20.70;99.90;;;;;;4978046;28;20085;-57
2023/07/18 09:45:27;;;;;;;3.83;0.90;;;20.60;99.90;;;;;;4989117;28;20053;-60
2023/07/18 09:47:54;;;;;;;6.03;1.58;;;20.80;99.90;;;;;;4987792;28;20058;-58
2023/07/18 09:50:23;;;;;;;6.63;1.40;;;20.80;99.90;;;;;;4985086;28;20069;-58
2023/07/18 09:52:50;;;;;;;3.90;1.40;;;21.00;99.90;;;;;;4988409;28;20062;-57
2023/07/18 09:55:21;;;;;;;5.57;0.80;;;21.20;99.90;;;;;;4990609;28;20042;-56
2023/07/18 09:57:49;;;;;;;5.60;1.00;;;21.30;99.90;;;;;;4990846;28;20054;-58
2023/07/18 10:00:16;;;;;;;3.72;0.85;;;21.30;99.90;;;;;;4991037;28;20061;-57
2023/07/18 10:02:43;;;;;;;3.25;0.70;;;21.40;99.90;;;;;;4981446;28;20042;-57
2023/07/18 10:05:10;;;;;;;3.63;1.10;;;21.40;99.90;;;;;;4986229;28;20050;-58
2023/07/18 10:07:38;;;;;;;2.67;0.80;;;21.50;99.90;;;;;;4989328;28;20481;-57
2023/07/18 10:10:08;;;;;;;3.97;0.80;;;21.70;99.90;;;;;;4975894;28;20066;-58
2023/07/18 10:12:36;;;;;;;4.72;0.82;;;21.80;99.90;;;;;;4984084;28;20162;-56
2023/07/18 10:15:04;;;;;;;1.83;0.70;;;21.90;99.90;;;;;;4991005;28;20294;-58
2023/07/18 10:17:40;;;;;;;4.95;1.13;;;21.80;99.90;;;;;;4984424;28;20055;-55
2023/07/18 10:20:17;;;;;;;8.88;1.67;;;22.00;99.90;;;;;;4990557;28;20501;-56
2023/07/18 10:22:57;;;;;;;6.95;1.98;;;22.10;99.90;;;;;;4985821;28;20088;-57
2023/07/18 10:25:31;;;;;;;4.10;1.20;;;21.90;99.90;;;;;;4989553;28;20052;-58
2023/07/18 10:27:59;;;;;;;2.67;1.13;;;21.70;99.90;;;;;;4990207;28;20053;-58
2023/07/18 10:30:41;;;;;;;1.42;0.90;;;22.10;99.90;;;;;;4987115;28;20094;-56
2023/07/18 10:33:08;;;;;;;5.10;1.20;;;22.30;99.90;;;;;;4988907;28;20081;-57
2023/07/18 10:35:41;;;;;;;4.40;0.90;;;22.40;99.90;;;;;;4972447;28;20182;-58
2023/07/18 10:38:08;;;;;;;5.17;0.90;;;22.50;99.90;;;;;;4986618;28;20124;-57
2023/07/18 10:40:43;;;;;;;3.53;1.13;;;22.50;99.90;;;;;;4988087;28;20421;-58
2023/07/18 10:43:18;;;;;;;4.43;1.25;;;22.40;99.90;;;;;;4975746;28;20513;-58
2023/07/18 10:45:45;;;;;;;4.07;1.08;;;22.30;99.90;;;;;;4979297;28;20046;-58
2023/07/18 10:48:16;;;;;;;3.05;1.10;;;22.60;99.90;;;;;;4985135;28;20057;-58
2023/07/18 10:50:44;;;;;;;7.75;1.23;;;22.70;99.70;;;;;;4988927;28;20354;-55
2023/07/18 10:53:17;;;;;;;4.95;1.20;;;22.90;99.90;;;;;;4999933;28;20109;-56
2023/07/18 10:55:45;;;;;;;2.55;1.02;;;23.30;99.90;;;;;;4988251;28;20046;-58
2023/07/18 10:58:21;;;;;;;3.15;0.70;;;23.30;99.50;;;;;;4986320;28;20544;-58
2023/07/18 11:00:48;;;;;;;3.20;0.80;;;23.10;98.10;;;;;;4989882;28;20054;-58
2023/07/18 11:03:31;;;;;;;3.05;1.10;;;22.90;99.30;;;;;;4987480;28;20266;-57
2023/07/18 11:05:58;;;;;;;3.28;0.95;;;22.70;98.30;;;;;;4987016;28;20058;-59
2023/07/18 11:08:31;;;;;;;4.97;1.25;;;22.70;99.10;;;;;;4989615;28;20050;-57
2023/07/18 11:11:00;;;;;;;2.67;0.70;;;22.80;99.30;;;;;;4989450;28;20112;-59
2023/07/18 11:13:40;;;;;;;2.58;0.95;;;22.90;98.80;;;;;;4988301;28;20069;-58
2023/07/18 11:16:08;;;;;;;2.67;1.15;;;23.00;97.00;;;;;;4985249;28;20062;-60
2023/07/18 11:18:36;;;;;;;5.25;1.13;;;23.00;97.70;;;;;;4988987;28;20039;-57
2023/07/18 11:21:04;;;;;;;3.88;1.10;;;23.10;97.80;;;;;;4989039;28;20062;-56
2023/07/18 11:23:31;;;;;;;7.53;1.30;;;23.10;97.60;;;;;;5000927;28;20481;-54
2023/07/18 11:25:58;;;;;;;4.47;1.15;;;23.10;97.80;;;;;;4989051;28;20042;-57
2023/07/18 11:28:32;;;;;;;5.10;1.25;;;23.20;97.90;;;;;;4970628;28;20059;-57
2023/07/18 11:30:59;;;;;;;7.32;1.10;;;23.10;96.60;;;;;;4989375;28;20069;-57
2023/07/18 11:33:31;;;;;;;3.40;1.10;;;23.00;96.50;;;;;;4987920;28;20050;-58
2023/07/18 11:35:58;;;;;;;9.25;1.00;;;22.90;96.00;;;;;;4984570;28;20058;-59
2023/07/18 11:38:32;;;;;;;2.10;0.77;;;23.10;97.20;;;;;;4625854;28;10000205;-59
2023/07/18 11:41:00;;;;;;;3.88;0.88;;;23.10;95.00;;;;;;5000080;28;20054;-57
2023/07/18 11:43:29;;;;;;;3.20;1.10;;;23.10;95.90;;;;;;4986213;28;20046;-58
2023/07/18 11:45:59;;;;;;;6.13;0.85;;;23.10;95.90;;;;;;4985927;28;20065;-56
2023/07/18 11:48:27;;;;;;;4.93;0.98;;;23.10;95.80;;;;;;4986376;28;20068;-56
2023/07/18 11:50:54;;;;;;;4.22;0.93;;;23.10;95.60;;;;;;4980961;28;20046;-58
2023/07/18 11:53:25;;;;;;;2.58;0.73;;;23.00;95.40;;;;;;4985976;28;20050;-57
2023/07/18 11:55:54;;;;;;;8.70;1.38;;;22.90;96.00;;;;;;4982746;28;20042;-58
2023/07/18 11:58:22;;;;;;;2.33;0.93;;;22.80;96.10;;;;;;4977744;28;20198;-56
2023/07/18 12:00:49;;;;;;;2.15;0.82;;;22.90;95.70;;;;;;4981170;28;20061;-57
2023/07/18 12:03:16;;;;;;;7.57;1.20;;;23.00;95.80;;;;;;4985456;28;20057;-58
2023/07/18 12:05:43;;;;;;;4.82;1.17;;;22.90;95.30;;;;;;4980807;28;20050;-57
2023/07/18 12:08:10;;;;;;;3.33;1.60;;;22.70;95.20;;;;;;4975021;28;20065;-58
2023/07/18 12:10:37;;;;;;;4.03;0.80;;;22.70;95.90;;;;;;4982753;28;20062;-60
2023/07/18 12:13:04;;;;;;;2.88;0.60;;;22.80;95.60;;;;;;4981501;28;20445;-58
2023/07/18 12:15:31;;;;;;;4.97;0.90;;;22.80;95.60;;;;;;4986072;28;20050;-58
2023/07/18 12:18:00;;;;;;;5.78;1.17;;;23.00;95.70;;;;;;4985679;28;20050;-57
2023/07/18 12:20:27;;;;;;;3.00;0.70;;;23.10;95.60;;;;;;4986058;28;20046;-58
2023/07/18 12:22:54;;;;;;;6.00;1.25;;;22.70;95.00;;;;;;4984550;28;20047;-56
2023/07/18 12:25:22;;;;;;;6.78;1.58;;;22.70;95.10;;;;;;4985954;28;20072;-56
2023/07/18 12:27:49;;;;;;;3.00;0.68;;;22.80;94.70;;;;;;4985811;28;20090;-57
2023/07/18 12:30:16;;;;;;;3.50;0.95;;;22.80;94.90;;;;;;4985513;28;20050;-62
2023/07/18 12:32:44;;;;;;;12.30;2.28;;;22.90;94.80;;;;;;4977517;28;20039;-58
2023/07/18 12:35:11;;;;;;;4.00;1.00;;;23.20;95.60;;;;;;4982159;28;20105;-59
2023/07/18 12:37:38;;;;;;;7.53;1.60;;;23.30;95.80;;;;;;4978176;28;20403;-58
2023/07/18 12:40:06;;;;;;;3.03;0.90;;;23.50;95.70;;;;;;4982578;28;20069;-59
2023/07/18 12:42:33;;;;;;;8.88;1.35;;;23.80;95.70;;;;;;4988466;28;20057;-59
2023/07/18 12:45:00;;;;;;;6.10;1.20;;;24.00;95.10;;;;;;4991788;28;20104;-57
2023/07/18 12:47:27;;;;;;;3.50;1.30;;;24.00;94.60;;;;;;4989817;28;20054;-59
2023/07/18 12:49:54;;;;;;;6.82;1.90;;;24.00;95.10;;;;;;4990104;28;20054;-59